createdAt,value
2019-01-23T00:00:59.518Z,78.96
2019-01-23T00:01:59.507Z,79.38
2019-01-23T00:02:59.534Z,79.17
2019-01-23T00:03:59.486Z,79.91
2019-01-23T00:04:59.474Z,80.44
2019-01-23T00:05:59.466Z,80.33
2019-01-23T00:06:59.470Z,80.44
2019-01-23T00:07:59.439Z,81.00
2019-01-23T00:08:59.454Z,80.65
2019-01-23T00:09:59.418Z,80.75
2019-01-23T00:10:59.411Z,80.54
2019-01-23T00:11:59.402Z,80.36
2019-01-23T00:12:59.386Z,80.68
2019-01-23T00:13:59.390Z,80.90
2019-01-23T00:14:59.370Z,80.54
2019-01-23T00:15:59.374Z,80.58
2019-01-23T00:16:59.346Z,80.90
2019-01-23T00:17:59.340Z,80.68
2019-01-23T00:18:59.363Z,80.44
2019-01-23T00:19:59.338Z,80.90
2019-01-23T00:20:59.298Z,80.90
2019-01-23T00:21:59.290Z,80.75
2019-01-23T00:22:59.282Z,81.00
2019-01-23T00:23:59.267Z,80.90
2019-01-23T00:24:59.286Z,80.47
2019-01-23T00:25:59.278Z,80.16
2019-01-23T00:26:59.234Z,80.16
2019-01-23T00:27:59.226Z,80.26
2019-01-23T00:28:59.226Z,79.84
2019-01-23T00:29:59.205Z,80.02
2019-01-23T00:30:59.202Z,79.63
2019-01-23T00:31:59.187Z,79.74
2019-01-23T00:32:59.188Z,80.05
2019-01-23T00:33:59.162Z,80.22
2019-01-23T00:34:59.154Z,80.44
2019-01-23T00:35:59.150Z,79.84
2019-01-23T00:36:59.134Z,80.05
2019-01-23T00:37:59.130Z,79.84
2019-01-23T00:38:59.142Z,79.94
2019-01-23T00:39:59.098Z,79.63
2019-01-23T00:40:59.083Z,80.05
2019-01-23T00:41:59.078Z,79.84
2019-01-23T00:42:59.066Z,79.32
2019-01-23T00:43:59.074Z,79.52
2019-01-23T00:44:59.047Z,79.42
2019-01-23T00:45:59.030Z,79.74
2019-01-23T00:46:59.022Z,80.68
2019-01-23T00:47:59.006Z,80.47
2019-01-23T00:48:59.002Z,80.47
2019-01-23T00:49:59.009Z,80.47
2019-01-23T00:50:58.982Z,80.36
2019-01-23T00:51:58.970Z,80.58
2019-01-23T00:52:58.946Z,80.05
2019-01-23T00:53:58.954Z,79.94
2019-01-23T00:54:58.926Z,80.26
2019-01-23T00:55:58.934Z,80.05
2019-01-23T00:56:58.910Z,80.79
2019-01-23T00:57:58.898Z,80.47
2019-01-23T00:58:58.882Z,80.26
2019-01-23T00:59:58.890Z,80.68
2019-01-23T01:00:58.874Z,81.04
2019-01-23T01:01:58.879Z,81.24
2019-01-23T01:02:58.846Z,81.84
2019-01-23T01:03:58.842Z,82.09
2019-01-23T01:04:58.822Z,81.74
2019-01-23T01:05:58.869Z,81.42
2019-01-23T01:06:58.802Z,81.56
2019-01-23T01:07:58.794Z,81.46
2019-01-23T01:08:58.782Z,81.84
2019-01-23T01:09:58.762Z,81.98
2019-01-23T01:10:58.758Z,82.20
2019-01-23T01:11:58.782Z,82.30
2019-01-23T01:12:58.742Z,82.40
2019-01-23T01:13:58.722Z,82.51
2019-01-23T01:14:58.718Z,82.93
2019-01-23T01:15:58.711Z,82.72
2019-01-23T01:16:58.694Z,83.14
2019-01-23T01:17:58.694Z,82.93
2019-01-23T01:18:58.670Z,82.72
2019-01-23T01:19:58.664Z,83.04
2019-01-23T01:20:58.666Z,83.04
2019-01-23T01:21:58.642Z,82.93
2019-01-23T01:22:58.623Z,83.29
2019-01-23T01:23:58.682Z,83.04
2019-01-23T01:24:58.606Z,83.46
2019-01-23T01:25:58.593Z,82.93
2019-01-23T01:26:58.614Z,83.50
2019-01-23T01:27:58.569Z,83.07
2019-01-23T01:28:58.570Z,83.14
2019-01-23T01:29:58.566Z,83.04
2019-01-23T01:30:58.538Z,83.07
2019-01-23T01:31:58.530Z,82.97
2019-01-23T01:32:58.538Z,83.07
2019-01-23T01:33:58.514Z,82.93
2019-01-23T01:34:58.502Z,83.46
2019-01-23T01:35:58.506Z,83.50
2019-01-23T01:36:58.479Z,83.18
2019-01-23T01:37:58.470Z,82.55
2019-01-23T01:38:58.458Z,82.76
2019-01-23T01:39:58.450Z,82.55
2019-01-23T01:40:58.438Z,83.07
2019-01-23T01:41:58.438Z,82.97
2019-01-23T01:42:58.418Z,83.07
2019-01-23T01:43:58.398Z,82.97
2019-01-23T01:44:58.402Z,82.97
2019-01-23T01:45:58.382Z,82.97
2019-01-23T01:46:58.373Z,83.60
2019-01-23T01:47:58.370Z,83.81
2019-01-23T01:48:58.354Z,84.80
2019-01-23T01:49:58.338Z,84.69
2019-01-23T01:50:58.342Z,85.22
2019-01-23T01:51:58.318Z,85.11
2019-01-23T01:52:58.321Z,85.11
2019-01-23T01:53:58.305Z,84.69
2019-01-23T01:54:58.286Z,84.80
2019-01-23T01:55:58.273Z,84.80
2019-01-23T01:56:58.258Z,85.33
2019-01-23T01:57:58.254Z,85.33
2019-01-23T01:59:02.744Z,85.75
2019-01-23T01:59:58.235Z,86.17
2019-01-23T02:00:58.226Z,85.68
2019-01-23T02:01:58.201Z,85.75
2019-01-23T02:02:58.197Z,85.26
2019-01-23T02:03:58.206Z,85.58
2019-01-23T02:04:58.173Z,85.89
2019-01-23T02:05:58.169Z,86.53
2019-01-23T02:06:58.150Z,86.53
2019-01-23T02:07:58.153Z,86.74
2019-01-23T02:08:58.150Z,86.53
2019-01-23T02:09:58.117Z,86.95
2019-01-23T02:10:58.105Z,87.16
2019-01-23T02:11:58.102Z,87.16
2019-01-23T02:12:58.105Z,86.67
2019-01-23T02:13:58.095Z,86.46
2019-01-23T02:14:58.078Z,87.30
2019-01-23T02:15:58.053Z,86.95
2019-01-23T02:16:58.054Z,86.99
2019-01-23T02:17:58.037Z,86.78
2019-01-23T02:18:58.030Z,86.88
2019-01-23T02:19:58.037Z,87.20
2019-01-23T02:20:57.998Z,87.09
2019-01-23T02:21:57.994Z,87.09
2019-01-23T02:22:57.987Z,87.20
2019-01-23T02:23:57.971Z,87.37
2019-01-23T02:24:57.955Z,87.09
2019-01-23T02:25:57.965Z,87.62
2019-01-23T02:26:57.937Z,87.09
2019-01-23T02:27:57.929Z,87.09
2019-01-23T02:28:57.926Z,87.41
2019-01-23T02:29:57.915Z,86.78
2019-01-23T02:30:57.892Z,87.09
2019-01-23T02:31:57.905Z,87.16
2019-01-23T02:32:57.869Z,87.05
2019-01-23T02:33:57.854Z,86.95
2019-01-23T02:34:57.859Z,87.20
2019-01-23T02:35:57.838Z,87.16
2019-01-23T02:36:57.834Z,86.53
2019-01-23T02:37:57.848Z,86.42
2019-01-23T02:38:57.822Z,87.16
2019-01-23T02:39:57.797Z,86.42
2019-01-23T02:40:57.782Z,86.63
2019-01-23T02:41:57.773Z,86.53
2019-01-23T02:42:57.777Z,86.57
2019-01-23T02:43:57.769Z,86.57
2019-01-23T02:44:57.746Z,86.53
2019-01-23T02:45:57.754Z,86.88
2019-01-23T02:46:57.722Z,86.67
2019-01-23T02:47:57.717Z,86.57
2019-01-23T02:48:57.697Z,86.57
2019-01-23T02:49:57.690Z,86.67
2019-01-23T02:50:57.690Z,87.20
2019-01-23T02:51:57.690Z,86.67
2019-01-23T02:52:57.683Z,86.78
2019-01-23T02:53:57.653Z,86.57
2019-01-23T02:54:57.634Z,86.99
2019-01-23T02:55:57.617Z,87.13
2019-01-23T02:56:57.613Z,87.09
2019-01-23T02:57:57.602Z,87.20
2019-01-23T02:58:57.629Z,87.30
2019-01-23T02:59:57.593Z,86.88
2019-01-23T03:00:57.565Z,86.92
2019-01-23T03:01:57.562Z,86.99
2019-01-23T03:02:57.546Z,87.24
2019-01-23T03:03:57.538Z,87.55
2019-01-23T03:04:57.550Z,87.03
2019-01-23T03:05:57.514Z,87.55
2019-01-23T03:06:57.515Z,87.24
2019-01-23T03:07:57.507Z,87.34
2019-01-23T03:08:57.480Z,87.34
2019-01-23T03:09:57.485Z,87.45
2019-01-23T03:10:57.477Z,87.34
2019-01-23T03:11:57.457Z,87.45
2019-01-23T03:12:57.441Z,87.34
2019-01-23T03:13:57.425Z,87.34
2019-01-23T03:14:57.414Z,87.34
2019-01-23T03:15:57.433Z,87.34
2019-01-23T03:16:57.397Z,87.45
2019-01-23T03:17:57.385Z,87.55
2019-01-23T03:18:57.370Z,87.66
2019-01-23T03:19:57.357Z,87.45
2019-01-23T03:20:57.366Z,87.45
2019-01-23T03:21:57.369Z,87.45
2019-01-23T03:22:57.330Z,87.34
2019-01-23T03:23:57.321Z,87.24
2019-01-23T03:24:57.319Z,87.34
2019-01-23T03:25:57.318Z,87.03
2019-01-23T03:26:57.285Z,86.92
2019-01-23T03:27:57.297Z,87.34
2019-01-23T03:28:57.285Z,87.55
2019-01-23T03:29:57.277Z,87.98
2019-01-23T03:30:57.250Z,87.66
2019-01-23T03:31:57.254Z,87.77
2019-01-23T03:32:57.249Z,87.66
2019-01-23T03:33:57.229Z,87.87
2019-01-23T03:34:57.209Z,87.55
2019-01-23T03:35:57.189Z,87.34
2019-01-23T03:36:57.185Z,87.34
2019-01-23T03:37:57.165Z,87.45
2019-01-23T03:38:57.169Z,87.34
2019-01-23T03:39:57.145Z,87.45
2019-01-23T03:40:57.150Z,87.55
2019-01-23T03:41:57.125Z,87.70
2019-01-23T03:42:57.166Z,87.60
2019-01-23T03:43:57.109Z,87.55
2019-01-23T03:44:57.118Z,87.77
2019-01-23T03:45:57.085Z,87.66
2019-01-23T03:46:57.069Z,87.66
2019-01-23T03:47:57.057Z,88.02
2019-01-23T03:48:57.045Z,87.81
2019-01-23T03:49:57.069Z,88.23
2019-01-23T03:50:57.037Z,88.71
2019-01-23T03:51:57.033Z,88.82
2019-01-23T03:52:57.025Z,89.39
2019-01-23T03:53:56.994Z,89.03
2019-01-23T03:54:57.000Z,88.71
2019-01-23T03:55:57.013Z,89.03
2019-01-23T03:56:56.969Z,89.03
2019-01-23T03:57:56.953Z,89.18
2019-01-23T03:58:56.946Z,89.18
2019-01-23T03:59:56.950Z,89.07
2019-01-23T04:00:56.917Z,88.97
2019-01-23T04:01:56.929Z,88.65
2019-01-23T04:02:56.930Z,88.86
2019-01-23T04:03:56.888Z,88.76
2019-01-23T04:04:56.893Z,88.54
2019-01-23T04:05:56.869Z,88.71
2019-01-23T04:06:56.865Z,88.86
2019-01-23T04:07:56.910Z,89.03
2019-01-23T04:08:56.857Z,89.39
2019-01-23T04:09:56.833Z,89.29
2019-01-23T04:10:56.817Z,89.18
2019-01-23T04:11:56.850Z,89.81
2019-01-23T04:12:56.808Z,89.92
2019-01-23T04:13:56.772Z,89.50
2019-01-23T04:14:56.765Z,89.50
2019-01-23T04:15:56.748Z,89.92
2019-01-23T04:16:56.730Z,89.50
2019-01-23T04:17:56.722Z,89.50
2019-01-23T04:18:56.740Z,89.18
2019-01-23T04:19:56.701Z,89.77
2019-01-23T04:20:56.691Z,89.56
2019-01-23T04:21:56.681Z,89.50
2019-01-23T04:22:56.673Z,89.50
2019-01-23T04:23:56.684Z,89.88
2019-01-23T04:24:56.654Z,89.67
2019-01-23T04:25:56.635Z,89.77
2019-01-23T04:26:56.644Z,89.98
2019-01-23T04:27:56.630Z,89.35
2019-01-23T04:28:56.609Z,89.88
2019-01-23T04:29:56.596Z,89.88
2019-01-23T04:30:56.585Z,89.98
2019-01-23T04:31:56.592Z,89.31
2019-01-23T04:32:56.565Z,89.73
2019-01-23T04:33:56.577Z,89.42
2019-01-23T04:34:56.544Z,89.06
2019-01-23T04:35:56.560Z,88.64
2019-01-23T04:36:56.520Z,88.85
2019-01-23T04:37:56.515Z,88.11
2019-01-23T04:38:56.509Z,87.90
2019-01-23T04:39:56.496Z,87.69
2019-01-23T04:40:56.480Z,87.69
2019-01-23T04:41:56.497Z,87.27
2019-01-23T04:42:56.460Z,87.27
2019-01-23T04:43:56.444Z,87.76
2019-01-23T04:44:56.435Z,87.54
2019-01-23T04:45:56.436Z,87.54
2019-01-23T04:46:56.419Z,87.65
2019-01-23T04:47:56.420Z,87.12
2019-01-23T04:48:56.398Z,87.12
2019-01-23T04:49:56.389Z,87.44
2019-01-23T04:50:56.368Z,86.80
2019-01-23T04:51:56.357Z,87.02
2019-01-23T04:52:56.397Z,87.44
2019-01-23T04:53:56.335Z,86.87
2019-01-23T04:54:56.324Z,87.02
2019-01-23T04:55:56.325Z,86.87
2019-01-23T04:56:56.325Z,86.98
2019-01-23T04:57:56.292Z,87.19
2019-01-23T04:58:56.315Z,86.45
2019-01-23T04:59:56.272Z,86.45
2019-01-23T05:00:56.269Z,86.55
2019-01-23T05:01:56.258Z,86.13
2019-01-23T05:02:56.256Z,85.50
2019-01-23T05:03:56.254Z,85.71
2019-01-23T05:04:56.226Z,86.66
2019-01-23T05:05:56.208Z,85.92
2019-01-23T05:06:56.200Z,85.71
2019-01-23T05:07:56.184Z,85.61
2019-01-23T05:08:56.197Z,85.39
2019-01-23T05:09:56.191Z,84.87
2019-01-23T05:10:56.161Z,84.76
2019-01-23T05:11:56.145Z,84.87
2019-01-23T05:12:56.141Z,85.29
2019-01-23T05:13:56.117Z,85.18
2019-01-23T05:14:56.108Z,85.29
2019-01-23T05:15:56.129Z,84.66
2019-01-23T05:16:56.097Z,84.66
2019-01-23T05:17:56.075Z,84.97
2019-01-23T05:18:56.080Z,85.18
2019-01-23T05:19:56.053Z,85.08
2019-01-23T05:20:56.044Z,84.97
2019-01-23T05:21:56.058Z,85.14
2019-01-23T05:22:56.033Z,84.97
2019-01-23T05:23:56.015Z,84.76
2019-01-23T05:24:56.009Z,84.97
2019-01-23T05:25:55.983Z,84.97
2019-01-23T05:26:55.985Z,84.94
2019-01-23T05:27:55.984Z,85.14
2019-01-23T05:28:55.965Z,84.41
2019-01-23T05:29:55.956Z,84.13
2019-01-23T05:30:55.937Z,83.78
2019-01-23T05:31:55.947Z,83.92
2019-01-23T05:32:55.948Z,83.25
2019-01-23T05:33:55.904Z,82.97
2019-01-23T05:34:55.929Z,83.39
2019-01-23T05:35:55.891Z,83.71
2019-01-23T05:36:55.873Z,83.04
2019-01-23T05:37:55.884Z,83.14
2019-01-23T05:38:55.851Z,83.25
2019-01-23T05:39:55.835Z,82.82
2019-01-23T05:40:55.839Z,83.88
2019-01-23T05:41:55.815Z,84.13
2019-01-23T05:42:55.837Z,84.23
2019-01-23T05:43:55.812Z,84.13
2019-01-23T05:44:55.804Z,83.88
2019-01-23T05:45:55.772Z,83.50
2019-01-23T05:46:55.768Z,83.56
2019-01-23T05:47:55.759Z,83.88
2019-01-23T05:48:55.784Z,83.14
2019-01-23T05:49:55.731Z,83.14
2019-01-23T05:50:55.729Z,83.14
2019-01-23T05:51:55.717Z,83.46
2019-01-23T05:52:55.700Z,83.56
2019-01-23T05:53:55.712Z,82.93
2019-01-23T05:54:55.708Z,83.25
2019-01-23T05:55:55.712Z,82.82
2019-01-23T05:56:55.660Z,83.25
2019-01-23T05:57:55.641Z,83.04
2019-01-23T05:58:55.631Z,83.46
2019-01-23T06:00:02.091Z,82.93
2019-01-23T06:00:56.616Z,83.04
2019-01-23T06:01:55.612Z,83.25
2019-01-23T06:02:55.604Z,83.56
2019-01-23T06:03:55.581Z,83.46
2019-01-23T06:04:55.568Z,82.62
2019-01-23T06:05:55.606Z,83.53
2019-01-23T06:06:55.551Z,83.36
2019-01-23T06:07:55.536Z,83.14
2019-01-23T06:08:55.543Z,82.93
2019-01-23T06:09:55.526Z,82.89
2019-01-23T06:10:55.515Z,82.89
2019-01-23T06:11:55.511Z,83.25
2019-01-23T06:12:55.480Z,82.89
2019-01-23T06:13:55.488Z,83.84
2019-01-23T06:14:55.455Z,83.88
2019-01-23T06:15:55.452Z,83.73
2019-01-23T06:16:55.498Z,83.84
2019-01-23T06:17:55.442Z,83.84
2019-01-23T06:18:55.424Z,82.79
2019-01-23T06:19:55.427Z,82.79
2019-01-23T06:20:55.663Z,82.47
2019-01-23T06:21:55.380Z,81.95
2019-01-23T06:22:55.404Z,82.05
2019-01-23T06:23:55.367Z,82.58
2019-01-23T06:24:55.352Z,83.04
2019-01-23T06:25:55.363Z,82.89
2019-01-23T06:26:55.336Z,83.21
2019-01-23T06:27:55.344Z,82.89
2019-01-23T06:28:55.329Z,82.89
2019-01-23T06:29:55.317Z,82.89
2019-01-23T06:30:55.307Z,82.68
2019-01-23T06:31:55.288Z,82.68
2019-01-23T06:32:55.282Z,82.62
2019-01-23T06:33:55.260Z,83.04
2019-01-23T06:34:55.260Z,83.00
2019-01-23T06:35:55.235Z,83.04
2019-01-23T06:36:55.252Z,82.58
2019-01-23T06:37:55.236Z,82.79
2019-01-23T06:38:55.199Z,82.93
2019-01-23T06:39:55.192Z,83.46
2019-01-23T06:40:55.171Z,82.26
2019-01-23T06:41:55.175Z,83.42
2019-01-23T06:42:55.189Z,83.42
2019-01-23T06:43:55.140Z,83.14
2019-01-23T06:44:55.144Z,82.89
2019-01-23T06:45:55.123Z,82.68
2019-01-23T06:46:55.120Z,83.00
2019-01-23T06:47:55.096Z,83.21
2019-01-23T06:48:55.116Z,83.21
2019-01-23T06:49:55.096Z,83.73
2019-01-23T06:50:55.089Z,83.11
2019-01-23T06:51:55.059Z,82.89
2019-01-23T06:52:55.044Z,82.79
2019-01-23T06:53:55.036Z,83.00
2019-01-23T06:54:55.049Z,82.26
2019-01-23T06:55:55.027Z,82.82
2019-01-23T06:56:55.047Z,83.25
2019-01-23T06:57:54.995Z,82.93
2019-01-23T06:58:54.983Z,82.89
2019-01-23T06:59:54.995Z,83.25
2019-01-23T07:00:54.963Z,82.68
2019-01-23T07:01:54.960Z,82.26
2019-01-23T07:02:54.951Z,82.05
2019-01-23T07:03:54.935Z,82.26
2019-01-23T07:04:54.920Z,82.82
2019-01-23T07:05:54.932Z,82.62
2019-01-23T07:06:54.899Z,82.89
2019-01-23T07:07:54.887Z,83.31
2019-01-23T07:08:54.895Z,82.58
2019-01-23T07:09:54.872Z,82.79
2019-01-23T07:10:54.852Z,83.00
2019-01-23T07:11:54.879Z,82.47
2019-01-23T07:12:54.855Z,82.62
2019-01-23T07:13:54.847Z,82.93
2019-01-23T07:14:54.811Z,82.82
2019-01-23T07:15:54.817Z,83.31
2019-01-23T07:16:54.818Z,82.93
2019-01-23T07:17:54.780Z,83.36
2019-01-23T07:18:54.786Z,83.78
2019-01-23T07:19:54.759Z,83.46
2019-01-23T07:20:54.759Z,83.67
2019-01-23T07:21:54.735Z,83.78
2019-01-23T07:22:54.751Z,83.67
2019-01-23T07:23:54.715Z,83.36
2019-01-23T07:24:54.703Z,83.88
2019-01-23T07:25:54.699Z,83.56
2019-01-23T07:26:54.687Z,83.88
2019-01-23T07:27:54.671Z,84.20
2019-01-23T07:28:54.716Z,83.67
2019-01-23T07:29:54.655Z,83.04
2019-01-23T07:30:54.639Z,83.46
2019-01-23T07:31:54.627Z,82.82
2019-01-23T07:32:54.622Z,83.42
2019-01-23T07:33:54.620Z,82.62
2019-01-23T07:34:54.613Z,82.09
2019-01-23T07:35:54.583Z,82.20
2019-01-23T07:36:54.567Z,82.09
2019-01-23T07:37:54.588Z,82.62
2019-01-23T07:38:54.555Z,82.82
2019-01-23T07:39:54.604Z,82.72
2019-01-23T07:40:54.535Z,83.00
2019-01-23T07:41:54.517Z,83.42
2019-01-23T07:42:54.511Z,83.36
2019-01-23T07:43:54.500Z,83.31
2019-01-23T07:44:54.483Z,83.11
2019-01-23T07:45:54.496Z,83.21
2019-01-23T07:46:54.474Z,83.21
2019-01-23T07:47:54.455Z,83.04
2019-01-23T07:48:54.475Z,83.73
2019-01-23T07:49:54.467Z,83.73
2019-01-23T07:50:54.419Z,83.73
2019-01-23T07:51:54.427Z,83.00
2019-01-23T07:52:54.395Z,83.31
2019-01-23T07:53:54.416Z,83.00
2019-01-23T07:54:54.411Z,82.58
2019-01-23T07:55:54.368Z,82.89
2019-01-23T07:56:54.355Z,82.79
2019-01-23T07:57:54.343Z,81.84
2019-01-23T07:58:54.331Z,81.42
2019-01-23T07:59:54.348Z,81.52
2019-01-23T08:00:54.323Z,81.63
2019-01-23T08:01:54.327Z,82.16
2019-01-23T08:02:54.295Z,82.37
2019-01-23T08:03:54.287Z,82.37
2019-01-23T08:04:54.267Z,82.37
2019-01-23T08:05:54.283Z,82.54
2019-01-23T08:06:54.260Z,82.86
2019-01-23T08:07:54.239Z,83.17
2019-01-23T08:08:54.243Z,83.28
2019-01-23T08:09:54.231Z,82.97
2019-01-23T08:10:54.251Z,82.65
2019-01-23T08:11:54.195Z,82.23
2019-01-23T08:12:54.213Z,81.81
2019-01-23T08:13:54.231Z,81.70
2019-01-23T08:14:54.163Z,82.12
2019-01-23T08:15:54.148Z,81.81
2019-01-23T08:16:54.159Z,81.91
2019-01-23T08:17:54.139Z,81.59
2019-01-23T08:18:54.117Z,81.91
2019-01-23T08:19:54.111Z,80.96
2019-01-23T08:20:54.123Z,80.44
2019-01-23T08:21:54.103Z,81.81
2019-01-23T08:22:54.099Z,81.21
2019-01-23T08:23:54.059Z,82.05
2019-01-23T08:24:54.055Z,81.49
2019-01-23T08:25:54.072Z,81.84
2019-01-23T08:26:54.027Z,81.42
2019-01-23T08:27:54.019Z,82.01
2019-01-23T08:28:54.019Z,81.38
2019-01-23T08:29:54.007Z,81.95
2019-01-23T08:30:54.004Z,81.21
2019-01-23T08:31:54.023Z,81.74
2019-01-23T08:32:53.968Z,81.63
2019-01-23T08:33:53.955Z,81.21
2019-01-23T08:34:53.959Z,81.32
2019-01-23T08:35:53.947Z,81.63
2019-01-23T08:36:53.927Z,82.26
2019-01-23T08:37:53.934Z,81.95
2019-01-23T08:38:53.895Z,81.74
2019-01-23T08:39:53.899Z,81.42
2019-01-23T08:40:53.884Z,81.42
2019-01-23T08:41:53.881Z,81.74
2019-01-23T08:42:53.880Z,81.95
2019-01-23T08:43:53.843Z,81.95
2019-01-23T08:44:53.835Z,82.16
2019-01-23T08:45:53.823Z,81.32
2019-01-23T08:46:53.823Z,81.21
2019-01-23T08:47:53.822Z,81.21
2019-01-23T08:48:53.811Z,81.52
2019-01-23T08:49:53.788Z,81.84
2019-01-23T08:50:53.771Z,81.42
2019-01-23T08:51:53.763Z,81.21
2019-01-23T08:52:53.755Z,82.05
2019-01-23T08:53:53.763Z,81.95
2019-01-23T08:54:53.747Z,82.05
2019-01-23T08:55:53.995Z,81.84
2019-01-23T08:56:53.707Z,81.63
2019-01-23T08:57:53.694Z,81.63
2019-01-23T08:58:53.684Z,81.42
2019-01-23T08:59:53.724Z,81.67
2019-01-23T09:00:53.703Z,81.88
2019-01-23T09:01:53.653Z,81.56
2019-01-23T09:02:53.639Z,81.77
2019-01-23T09:03:53.657Z,81.88
2019-01-23T09:04:53.618Z,82.09
2019-01-23T09:05:53.599Z,82.51
2019-01-23T09:06:53.645Z,82.40
2019-01-23T09:07:53.587Z,81.77
2019-01-23T09:08:53.580Z,82.09
2019-01-23T09:09:53.562Z,81.56
2019-01-23T09:10:53.550Z,81.88
2019-01-23T09:11:53.547Z,82.20
2019-01-23T09:12:53.563Z,81.95
2019-01-23T09:13:53.527Z,81.35
2019-01-23T09:14:53.535Z,81.46
2019-01-23T09:15:53.496Z,81.56
2019-01-23T09:16:53.487Z,81.24
2019-01-23T09:17:53.501Z,81.35
2019-01-23T09:18:53.511Z,81.46
2019-01-23T09:19:53.467Z,81.67
2019-01-23T09:20:53.451Z,82.20
2019-01-23T09:21:53.446Z,82.05
2019-01-23T09:22:53.422Z,82.79
2019-01-23T09:23:53.407Z,82.16
2019-01-23T09:24:53.415Z,82.09
2019-01-23T09:25:53.387Z,82.16
2019-01-23T09:26:53.375Z,81.42
2019-01-23T09:27:53.379Z,81.74
2019-01-23T09:28:53.359Z,80.68
2019-01-23T09:29:53.370Z,80.36
2019-01-23T09:30:54.557Z,80.68
2019-01-23T09:31:53.323Z,80.58
2019-01-23T09:32:53.323Z,79.94
2019-01-23T09:33:53.310Z,80.05
2019-01-23T09:34:53.294Z,80.16
2019-01-23T09:35:53.283Z,79.94
2019-01-23T09:36:53.295Z,80.44
2019-01-23T09:37:53.255Z,80.54
2019-01-23T09:38:53.255Z,80.47
2019-01-23T09:39:53.246Z,80.22
2019-01-23T09:40:53.238Z,79.80
2019-01-23T09:41:53.235Z,80.02
2019-01-23T09:42:53.203Z,80.44
2019-01-23T09:43:53.188Z,80.12
2019-01-23T09:44:53.183Z,79.77
2019-01-23T09:45:53.178Z,79.56
2019-01-23T09:46:53.163Z,78.82
2019-01-23T09:47:53.171Z,79.66
2019-01-23T09:48:53.135Z,79.70
2019-01-23T09:49:53.126Z,79.77
2019-01-23T09:50:53.115Z,79.70
2019-01-23T09:51:53.104Z,79.24
2019-01-23T09:52:53.103Z,79.24
2019-01-23T09:53:53.119Z,79.24
2019-01-23T09:54:53.071Z,79.56
2019-01-23T09:55:53.058Z,78.82
2019-01-23T09:56:53.070Z,78.61
2019-01-23T09:57:53.042Z,78.50
2019-01-23T09:58:53.047Z,79.56
2019-01-23T09:59:53.042Z,79.77
2019-01-23T10:00:59.553Z,79.45
2019-01-23T10:01:54.012Z,78.68
2019-01-23T10:02:52.990Z,79.21
2019-01-23T10:03:52.978Z,79.00
2019-01-23T10:04:52.995Z,79.21
2019-01-23T10:05:52.967Z,78.58
2019-01-23T10:06:52.973Z,78.58
2019-01-23T10:07:52.934Z,77.84
2019-01-23T10:08:52.938Z,78.05
2019-01-23T10:09:52.914Z,77.80
2019-01-23T10:10:52.930Z,78.36
2019-01-23T10:11:52.890Z,78.75
2019-01-23T10:12:52.899Z,79.06
2019-01-23T10:13:52.886Z,78.33
2019-01-23T10:14:52.862Z,77.91
2019-01-23T10:15:52.842Z,77.48
2019-01-23T10:16:52.874Z,78.22
2019-01-23T10:17:52.834Z,77.38
2019-01-23T10:18:56.153Z,77.48
2019-01-23T10:19:52.802Z,77.48
2019-01-23T10:20:52.790Z,76.96
2019-01-23T10:21:52.798Z,77.07
2019-01-23T10:22:52.782Z,77.07
2019-01-23T10:23:52.786Z,76.82
2019-01-23T10:24:52.771Z,76.61
2019-01-23T10:25:52.738Z,77.14
2019-01-23T10:26:52.734Z,77.03
2019-01-23T10:27:52.781Z,76.40
2019-01-23T10:28:52.714Z,76.68
2019-01-23T10:29:52.698Z,76.89
2019-01-23T10:30:52.694Z,76.05
2019-01-23T10:31:52.682Z,75.24
2019-01-23T10:32:52.666Z,75.35
2019-01-23T10:33:52.678Z,75.67
2019-01-23T10:34:52.638Z,76.19
2019-01-23T10:35:52.634Z,76.40
2019-01-23T10:36:52.622Z,75.98
2019-01-23T10:37:52.610Z,76.29
2019-01-23T10:38:52.631Z,75.59
2019-01-23T10:39:52.607Z,76.23
2019-01-23T10:40:52.582Z,77.07
2019-01-23T10:41:52.574Z,76.96
2019-01-23T10:42:52.569Z,77.17
2019-01-23T10:43:52.554Z,77.28
2019-01-23T10:44:52.582Z,77.48
2019-01-23T10:45:52.526Z,77.24
2019-01-23T10:46:52.536Z,77.14
2019-01-23T10:47:56.104Z,77.70
2019-01-23T10:48:52.491Z,78.02
2019-01-23T10:49:52.486Z,77.87
2019-01-23T10:50:52.474Z,77.14
2019-01-23T10:51:52.458Z,77.24
2019-01-23T10:52:52.490Z,77.14
2019-01-23T10:53:52.434Z,76.93
2019-01-23T10:54:52.434Z,76.29
2019-01-23T10:55:52.421Z,76.61
2019-01-23T10:56:52.403Z,75.98
2019-01-23T10:57:52.398Z,75.67
2019-01-23T10:58:52.418Z,75.87
2019-01-23T10:59:52.370Z,76.09
2019-01-23T11:00:52.401Z,76.51
2019-01-23T11:01:52.354Z,76.19
2019-01-23T11:02:52.346Z,77.38
2019-01-23T11:03:52.350Z,76.23
2019-01-23T11:04:52.318Z,76.82
2019-01-23T11:05:52.309Z,77.35
2019-01-23T11:06:52.306Z,77.14
2019-01-23T11:07:52.307Z,76.82
2019-01-23T11:08:52.330Z,76.79
2019-01-23T11:09:52.294Z,77.21
2019-01-23T11:10:52.255Z,76.37
2019-01-23T11:11:52.251Z,76.26
2019-01-23T11:12:52.234Z,75.28
2019-01-23T11:13:52.238Z,75.28
2019-01-23T11:14:52.225Z,75.14
2019-01-23T11:15:52.222Z,74.62
2019-01-23T11:16:52.195Z,74.73
2019-01-23T11:17:52.178Z,74.62
2019-01-23T11:18:52.164Z,74.62
2019-01-23T11:19:52.159Z,73.68
2019-01-23T11:20:52.186Z,73.99
2019-01-23T11:21:52.134Z,73.78
2019-01-23T11:22:52.128Z,74.83
2019-01-23T11:23:52.110Z,73.68
2019-01-23T11:24:52.098Z,74.33
2019-01-23T11:25:52.107Z,74.30
2019-01-23T11:26:52.110Z,74.83
2019-01-23T11:27:52.079Z,74.73
2019-01-23T11:28:52.066Z,74.83
2019-01-23T11:29:52.066Z,74.83
2019-01-23T11:30:52.038Z,73.68
2019-01-23T11:31:52.034Z,73.68
2019-01-23T11:32:52.041Z,74.09
2019-01-23T11:33:52.006Z,73.99
2019-01-23T11:34:51.993Z,74.62
2019-01-23T11:35:52.017Z,75.25
2019-01-23T11:36:51.966Z,75.04
2019-01-23T11:37:51.958Z,73.96
2019-01-23T11:38:52.665Z,74.69
2019-01-23T11:39:51.959Z,74.65
2019-01-23T11:40:51.930Z,74.55
2019-01-23T11:41:51.922Z,74.24
2019-01-23T11:42:51.906Z,73.68
2019-01-23T11:43:51.907Z,72.21
2019-01-23T11:44:51.902Z,72.00
2019-01-23T11:45:51.866Z,72.52
2019-01-23T11:46:51.858Z,71.89
2019-01-23T11:47:51.850Z,72.39
2019-01-23T11:48:51.845Z,70.85
2019-01-23T11:49:51.854Z,71.34
2019-01-23T11:50:51.838Z,72.07
2019-01-23T11:51:51.801Z,73.02
2019-01-23T11:52:51.805Z,72.60
2019-01-23T11:53:51.802Z,72.04
2019-01-23T11:54:51.769Z,70.92
2019-01-23T11:55:51.761Z,71.03
2019-01-23T11:56:51.762Z,70.50
2019-01-23T11:57:51.746Z,70.29
2019-01-23T11:58:51.730Z,70.81
2019-01-23T11:59:51.730Z,70.50
2019-01-23T12:00:51.702Z,70.95
2019-01-23T12:01:51.738Z,71.37
2019-01-23T12:02:51.703Z,71.89
2019-01-23T12:03:51.715Z,72.03
2019-01-23T12:04:51.658Z,71.83
2019-01-23T12:05:51.662Z,72.34
2019-01-23T12:06:51.638Z,72.45
2019-01-23T12:07:51.633Z,72.56
2019-01-23T12:08:51.682Z,72.98
2019-01-23T12:09:51.822Z,72.56
2019-01-23T12:10:51.590Z,72.24
2019-01-23T12:11:51.595Z,72.31
2019-01-23T12:12:51.573Z,72.74
2019-01-23T12:13:51.567Z,72.21
2019-01-23T12:14:51.589Z,71.89
2019-01-23T12:15:51.546Z,72.11
2019-01-23T12:16:51.529Z,71.48
2019-01-23T12:17:51.522Z,71.66
2019-01-23T12:18:51.530Z,71.44
2019-01-23T12:19:51.498Z,71.03
2019-01-23T12:20:51.508Z,71.13
2019-01-23T12:21:51.474Z,70.61
2019-01-23T12:22:51.466Z,70.47
2019-01-23T12:23:58.110Z,69.87
2019-01-23T12:24:52.446Z,70.47
2019-01-23T12:25:51.454Z,70.89
2019-01-23T12:26:51.450Z,70.26
2019-01-23T12:27:51.410Z,70.40
2019-01-23T12:28:51.410Z,70.18
2019-01-23T12:29:51.391Z,70.40
2019-01-23T12:30:51.426Z,71.13
2019-01-23T12:31:51.375Z,70.40
2019-01-23T12:32:51.365Z,70.32
2019-01-23T12:33:51.348Z,70.43
2019-01-23T12:34:51.327Z,69.70
2019-01-23T12:35:51.319Z,69.59
2019-01-23T12:36:51.330Z,69.70
2019-01-23T12:37:51.314Z,69.07
2019-01-23T12:38:51.291Z,70.18
2019-01-23T12:39:51.282Z,70.64
2019-01-23T12:40:51.277Z,70.01
2019-01-23T12:41:51.286Z,69.70
2019-01-23T12:42:51.238Z,70.43
2019-01-23T12:43:51.238Z,70.25
2019-01-23T12:44:51.218Z,70.67
2019-01-23T12:45:51.210Z,70.67
2019-01-23T12:46:51.206Z,70.46
2019-01-23T12:47:51.210Z,70.88
2019-01-23T12:48:51.186Z,71.61
2019-01-23T12:49:51.198Z,71.72
2019-01-23T12:50:51.179Z,72.45
2019-01-23T12:51:51.154Z,72.77
2019-01-23T12:52:51.162Z,72.06